Time;durP1;ratioP1;P1;durP2;ratioP2;P2;SDS_P1;SDS_P2;PMS_P1;PMS_P2;Temp;Humidity;BMP_temperature;BMP_pressure;BME280_temperature;BME280_humidity;BME280_pressure;Samples;Min_cycle;Max_cycle;Signal;HPM_P1;HPM_P2
2022/08/27 00:01:32;;;;;;;7.53;3.80;;;;;;;19.94;69.02;96102.40;1716018;83;21011;-85
2022/08/27 00:03:57;;;;;;;7.42;3.90;;;;;;;19.90;68.91;96108.42;1686318;83;21100;-85
2022/08/27 00:06:24;;;;;;;7.35;3.65;;;;;;;19.85;68.70;96109.17;1739310;80;20961;-84
2022/08/27 00:08:50;;;;;;;7.05;3.40;;;;;;;19.82;69.04;96108.32;1681781;84;21019;-84
2022/08/27 00:11:16;;;;;;;6.17;3.27;;;;;;;19.76;69.56;96100.88;1686955;84;20991;-85
2022/08/27 00:13:42;;;;;;;5.35;3.27;;;;;;;19.70;69.22;96104.52;1718559;82;20991;-84
2022/08/27 00:16:10;;;;;;;5.28;3.55;;;;;;;19.65;69.38;96100.48;1722982;82;20967;-85
2022/08/27 00:18:36;;;;;;;6.17;3.33;;;;;;;19.61;69.67;96102.02;1700743;83;21042;-85
2022/08/27 00:21:01;;;;;;;8.75;3.58;;;;;;;19.55;69.95;96109.59;1691242;83;20991;-84
2022/08/27 00:23:27;;;;;;;5.45;3.40;;;;;;;19.51;69.88;96109.76;1699949;83;21018;-84
2022/08/27 00:25:53;;;;;;;5.47;3.02;;;;;;;19.45;69.11;96108.11;1687510;83;21035;-84
2022/08/27 00:28:20;;;;;;;4.65;3.30;;;;;;;19.42;69.17;96115.19;1682201;83;21016;-84
2022/08/27 00:30:46;;;;;;;6.33;3.55;;;;;;;19.37;68.62;96112.50;1718640;83;20944;-84
2022/08/27 00:33:12;;;;;;;7.15;3.30;;;;;;;19.31;68.50;96118.20;1708807;82;21432;-84
2022/08/27 00:35:38;;;;;;;5.47;3.30;;;;;;;19.28;69.03;96118.69;1708187;82;21110;-84
2022/08/27 00:38:05;;;;;;;5.40;3.50;;;;;;;19.24;69.22;96118.91;1740081;81;21054;-84
2022/08/27 00:40:32;;;;;;;6.50;3.50;;;;;;;19.18;69.69;96119.33;1708924;82;21381;-84
2022/08/27 00:43:02;;;;;;;5.17;3.55;;;;;;;19.13;69.35;96121.11;1742105;81;21007;-84
2022/08/27 00:45:27;;;;;;;6.30;3.70;;;;;;;19.07;69.75;96118.92;1728804;81;20991;-84
2022/08/27 00:47:55;;;;;;;7.33;3.20;;;;;;;19.04;70.51;96120.73;1721113;81;20967;-84
2022/08/27 00:50:39;;;;;;;6.30;3.42;;;;;;;19.02;70.44;96118.83;1731293;81;20939;-84
2022/08/27 00:53:09;;;;;;;4.50;3.65;;;;;;;19.00;70.63;96115.65;1741239;81;21310;-84
2022/08/27 00:55:45;;;;;;;5.80;3.40;;;;;;;18.97;70.93;96120.08;1739925;82;20932;-84
2022/08/27 00:58:20;;;;;;;4.33;2.85;;;;;;;18.94;70.85;96114.51;1730834;81;21006;-84
2022/08/27 01:00:46;;;;;;;4.53;3.65;;;;;;;18.86;70.30;96110.42;1734870;81;21476;-83
2022/08/27 01:03:12;;;;;;;5.35;3.40;;;;;;;18.80;70.27;96105.61;1739516;81;20955;-84
2022/08/27 01:05:39;;;;;;;5.53;3.35;;;;;;;18.75;70.09;96106.86;1733001;81;20994;-84
2022/08/27 01:08:10;;;;;;;6.65;3.80;;;;;;;18.73;70.15;96104.19;1744559;81;20971;-84
2022/08/27 01:10:36;;;;;;;6.30;3.60;;;;;;;18.71;70.40;96103.61;1741202;81;20974;-84
2022/08/27 01:13:02;;;;;;;5.35;3.50;;;;;;;18.72;70.57;96105.23;1732742;81;21361;-84
2022/08/27 01:15:27;;;;;;;5.92;3.58;;;;;;;18.73;70.69;96111.56;1733256;82;21070;-84
2022/08/27 01:17:55;;;;;;;4.37;3.25;;;;;;;18.74;71.23;96115.00;1729048;81;21003;-84
2022/08/27 01:20:28;;;;;;;5.80;3.75;;;;;;;18.72;71.84;96107.34;1728767;82;20994;-84
2022/08/27 01:23:05;;;;;;;5.33;4.03;;;;;;;18.71;72.59;96103.12;1739671;81;20998;-88
2022/08/27 01:25:31;;;;;;;6.78;3.30;;;;;;;18.67;73.45;96096.72;1742705;81;21418;-87
2022/08/27 01:27:57;;;;;;;7.10;4.00;;;;;;;18.65;72.79;96094.84;1735457;81;21026;-88
2022/08/27 01:30:23;;;;;;;7.55;3.50;;;;;;;18.66;71.97;96101.70;1742177;81;21631;-87
2022/08/27 01:32:49;;;;;;;5.95;4.00;;;;;;;18.67;72.02;96105.13;1731148;82;20962;-87
2022/08/27 01:35:16;;;;;;;7.37;3.25;;;;;;;18.67;72.74;96097.23;1708137;83;21016;-88
2022/08/27 01:37:43;;;;;;;5.95;3.83;;;;;;;18.67;73.35;96102.50;1712145;83;21354;-87
2022/08/27 01:40:10;;;;;;;9.65;3.98;;;;;;;18.67;74.04;96103.81;1722619;82;21004;-87
2022/08/27 01:42:40;;;;;;;5.65;3.12;;;;;;;18.65;73.71;96108.00;1718282;81;20948;-87
2022/08/27 01:45:13;;;;;;;7.80;3.70;;;;;;;18.68;73.70;96108.04;1694447;83;21434;-87
2022/08/27 01:47:39;;;;;;;8.53;4.28;;;;;;;18.69;74.17;96103.85;1705801;82;21342;-88
2022/08/27 01:50:13;;;;;;;6.92;3.65;;;;;;;18.67;73.38;96098.03;1708722;82;20955;-88
2022/08/27 01:52:38;;;;;;;8.20;4.12;;;;;;;18.66;73.97;96100.39;1708712;82;21030;-88
2022/08/27 01:55:07;;;;;;;8.38;3.67;;;;;;;18.63;73.55;96104.81;1711996;82;20998;-87
2022/08/27 01:57:34;;;;;;;4.80;3.12;;;;;;;18.62;73.69;96108.97;1711343;82;21003;-87
2022/08/27 02:00:10;;;;;;;7.00;3.92;;;;;;;18.60;73.78;96105.27;1710786;82;20991;-87
2022/08/27 02:02:36;;;;;;;5.35;3.67;;;;;;;18.57;74.05;96102.60;1721064;82;20936;-88
2022/08/27 02:05:02;;;;;;;7.67;3.60;;;;;;;18.57;74.87;96101.80;1709399;82;21085;-87
2022/08/27 02:07:28;;;;;;;5.05;3.62;;;;;;;18.56;74.79;96093.11;1709764;82;21070;-87
2022/08/27 02:09:54;;;;;;;7.55;3.40;;;;;;;18.58;74.24;96099.45;1692820;83;21067;-87
2022/08/27 02:12:19;;;;;;;10.55;4.10;;;;;;;18.59;74.73;96097.89;1701307;83;20990;-88
2022/08/27 02:14:45;;;;;;;7.97;4.00;;;;;;;18.59;75.83;96101.84;1703756;82;21410;-87
2022/08/27 02:17:11;;;;;;;6.97;3.83;;;;;;;18.59;75.83;96101.84;1724996;82;21018;-87
2022/08/27 02:19:37;;;;;;;6.62;3.47;;;;;;;18.60;75.99;96101.32;1711865;82;21074;-85
2022/08/27 02:22:03;;;;;;;7.40;3.80;;;;;;;18.63;75.76;96103.98;1688647;84;21003;-85
2022/08/27 02:24:29;;;;;;;8.83;3.65;;;;;;;18.64;75.61;96100.35;1712318;83;20924;-85
2022/08/27 02:26:55;;;;;;;4.62;4.00;;;;;;;18.62;74.76;96098.45;1698879;82;21456;-85
2022/08/27 02:29:21;;;;;;;5.50;4.00;;;;;;;18.60;73.94;96100.80;1692853;83;21042;-85
2022/08/27 02:31:47;;;;;;;7.55;4.37;;;;;;;18.60;73.68;96102.64;1724677;83;21035;-85
2022/08/27 02:34:13;;;;;;;11.20;4.00;;;;;;;18.58;74.79;96104.19;1713226;82;21103;-85
2022/08/27 02:36:39;;;;;;;6.70;3.80;;;;;;;18.58;75.32;96106.03;1739652;81;21514;-85
2022/08/27 02:39:05;;;;;;;8.05;3.98;;;;;;;18.56;74.72;96110.73;1694475;83;21071;-85
2022/08/27 02:41:32;;;;;;;8.73;4.00;;;;;;;18.54;74.70;96110.15;1712851;83;21385;-85
2022/08/27 02:43:58;;;;;;;6.95;3.62;;;;;;;18.53;74.37;96105.41;1709039;82;20994;-85
2022/08/27 02:46:24;;;;;;;4.92;4.17;;;;;;;18.53;73.94;96103.30;1703582;84;21397;-85
2022/08/27 02:48:51;;;;;;;5.10;3.65;;;;;;;18.53;74.06;96098.03;1705124;82;21042;-85
2022/08/27 02:51:17;;;;;;;6.20;3.90;;;;;;;18.49;74.14;96099.03;1685245;84;21033;-87
2022/08/27 02:53:42;;;;;;;4.42;3.60;;;;;;;18.47;74.22;96102.42;1713656;82;20936;-87
2022/08/27 02:56:09;;;;;;;8.78;4.10;;;;;;;18.45;74.67;96095.81;1710014;84;21051;-87
2022/08/27 02:58:35;;;;;;;6.28;3.62;;;;;;;18.44;74.61;96094.22;1714216;83;21438;-87
2022/08/27 03:01:01;;;;;;;7.08;3.50;;;;;;;18.45;74.44;96101.06;1722944;82;21119;-87
2022/08/27 03:03:28;;;;;;;6.55;3.67;;;;;;;18.46;74.31;96099.52;1708539;82;21312;-87
2022/08/27 03:05:56;;;;;;;8.65;4.17;;;;;;;18.48;74.24;96100.07;1711180;82;21119;-87
2022/08/27 03:08:25;;;;;;;9.55;4.28;;;;;;;18.48;74.37;96100.07;1705060;82;20955;-87
2022/08/27 03:10:52;;;;;;;10.20;4.00;;;;;;;18.47;74.69;96101.63;1695350;82;20979;-87
2022/08/27 03:13:18;;;;;;;8.28;4.70;;;;;;;18.42;74.92;96102.34;1695035;83;21425;-86
2022/08/27 03:15:44;;;;;;;7.90;3.98;;;;;;;18.38;74.88;96093.83;1712860;82;20986;-87
2022/08/27 03:18:19;;;;;;;5.97;3.70;;;;;;;18.35;74.83;96096.94;1712211;82;20986;-87
2022/08/27 03:20:52;;;;;;;5.50;3.30;;;;;;;18.33;74.91;96102.95;1723776;82;20992;-87
2022/08/27 03:23:21;;;;;;;7.83;4.35;;;;;;;18.32;75.14;96107.42;1711145;82;21034;-87
2022/08/27 03:25:51;;;;;;;6.28;4.05;;;;;;;18.30;75.27;96103.72;1711546;82;20967;-87
2022/08/27 03:28:19;;;;;;;10.43;4.20;;;;;;;18.27;75.61;96099.45;1719451;83;20972;-86
2022/08/27 03:30:50;;;;;;;7.08;4.15;;;;;;;18.24;76.00;96098.62;1692522;84;21004;-87
2022/08/27 03:33:16;;;;;;;9.73;4.50;;;;;;;18.20;75.94;96100.89;1716545;83;21350;-87
2022/08/27 03:35:42;;;;;;;5.40;3.50;;;;;;;18.17;76.64;96094.00;1705555;82;21109;-87
2022/08/27 03:38:08;;;;;;;5.08;3.55;;;;;;;18.17;76.84;96089.55;1738291;81;20951;-87
2022/08/27 03:40:34;;;;;;;4.17;3.62;;;;;;;18.18;76.65;96086.39;1704060;82;20947;-86
2022/08/27 03:43:00;;;;;;;7.15;3.62;;;;;;;18.16;76.47;96082.69;1726218;81;20932;-87
2022/08/27 03:45:26;;;;;;;6.35;3.55;;;;;;;18.15;76.17;96088.19;1709954;82;21082;-87
2022/08/27 03:47:52;;;;;;;6.60;4.35;;;;;;;18.14;75.77;96087.39;1742315;81;21352;-87
2022/08/27 03:50:18;;;;;;;10.40;4.33;;;;;;;18.14;76.57;96086.59;1723658;81;21003;-87
2022/08/27 03:52:44;;;;;;;7.37;4.55;;;;;;;18.15;76.85;96086.35;1724662;81;20992;-86
2022/08/27 03:55:10;;;;;;;8.80;3.83;;;;;;;18.16;76.96;96086.63;1725993;81;21054;-87
2022/08/27 03:57:35;;;;;;;5.35;3.65;;;;;;;18.18;76.62;96091.66;1742622;81;21297;-87
2022/08/27 04:00:02;;;;;;;5.80;4.40;;;;;;;18.21;76.72;96089.86;1741945;82;20975;-87
2022/08/27 04:02:28;;;;;;;7.00;4.10;;;;;;;18.22;76.38;96094.08;1739312;82;21069;-87
2022/08/27 04:04:56;;;;;;;6.12;4.28;;;;;;;18.22;76.68;96094.08;1735744;81;21055;-87
2022/08/27 04:07:21;;;;;;;6.45;4.22;;;;;;;18.19;77.42;96088.78;1722069;81;20975;-87
2022/08/27 04:09:47;;;;;;;8.13;3.87;;;;;;;18.17;77.72;96095.32;1730798;82;20983;-87
2022/08/27 04:12:13;;;;;;;7.30;3.85;;;;;;;18.17;78.13;96094.00;1733606;81;20975;-87
2022/08/27 04:14:39;;;;;;;6.90;3.85;;;;;;;18.16;78.51;96093.20;1741737;81;20924;-87
2022/08/27 04:17:05;;;;;;;7.05;4.45;;;;;;;18.17;78.64;96096.11;1738937;82;20979;-87
2022/08/27 04:19:32;;;;;;;9.15;4.45;;;;;;;18.17;78.56;96094.80;1738455;81;21073;-87
2022/08/27 04:22:00;;;;;;;6.72;4.58;;;;;;;18.18;78.71;96091.13;1729065;81;21005;-87
2022/08/27 04:24:27;;;;;;;7.40;5.30;;;;;;;18.16;78.67;96092.41;1740920;81;21017;-87
2022/08/27 04:26:56;;;;;;;7.75;4.42;;;;;;;18.14;78.36;96086.08;1739050;81;22432;-87
2022/08/27 04:29:22;;;;;;;10.93;4.65;;;;;;;18.13;78.30;96088.42;1741585;81;21028;-87
2022/08/27 04:31:49;;;;;;;9.00;4.62;;;;;;;18.13;78.59;96091.05;1735097;81;21001;-88
2022/08/27 04:34:16;;;;;;;8.45;3.90;;;;;;;18.14;78.72;96090.02;1734280;81;21430;-85
2022/08/27 04:36:42;;;;;;;6.95;3.70;;;;;;;18.17;78.87;96095.32;1711427;83;21083;-85
2022/08/27 04:39:08;;;;;;;6.83;4.10;;;;;;;18.17;78.84;96096.63;1721500;83;21329;-85
2022/08/27 04:41:33;;;;;;;8.48;4.33;;;;;;;18.19;78.71;96101.93;1714334;82;21552;-85
2022/08/27 04:44:08;;;;;;;4.83;3.62;;;;;;;18.23;78.86;96106.23;1726385;81;20984;-85
2022/08/27 04:46:36;;;;;;;9.45;3.98;;;;;;;18.24;78.87;96110.45;1711936;83;20960;-84
2022/08/27 04:49:06;;;;;;;5.28;4.10;;;;;;;18.22;78.88;96109.86;1725521;83;21023;-84
2022/08/27 04:51:32;;;;;;;7.28;3.87;;;;;;;18.22;79.05;96117.75;1721750;82;21412;-84
2022/08/27 04:53:59;;;;;;;6.08;3.70;;;;;;;18.20;79.41;96124.56;1696360;83;21007;-84
2022/08/27 04:56:25;;;;;;;9.55;4.30;;;;;;;18.24;79.90;96127.55;1714380;82;21042;-85
2022/08/27 04:58:50;;;;;;;10.18;4.67;;;;;;;18.25;80.13;96127.30;1721028;83;21000;-85
2022/08/27 05:01:26;;;;;;;6.67;4.28;;;;;;;18.26;80.30;96118.38;1726637;82;21038;-85
2022/08/27 05:03:52;;;;;;;5.72;4.05;;;;;;;18.28;80.56;96122.09;1719579;83;20975;-85
2022/08/27 05:06:18;;;;;;;7.75;4.35;;;;;;;18.28;80.85;96114.20;1715738;83;20991;-85
2022/08/27 05:08:44;;;;;;;5.75;3.85;;;;;;;18.32;80.96;96115.83;1722344;81;20963;-84
2022/08/27 05:11:13;;;;;;;6.60;4.03;;;;;;;18.35;80.88;96114.83;1721660;83;20935;-83
2022/08/27 05:13:41;;;;;;;5.20;4.12;;;;;;;18.38;80.58;96120.93;1706167;82;21004;-84
2022/08/27 05:16:10;;;;;;;5.30;4.55;;;;;;;18.40;80.80;96122.03;1687394;83;20988;-85
2022/08/27 05:18:36;;;;;;;6.90;3.77;;;;;;;18.44;80.77;96131.84;1719538;83;21094;-85
2022/08/27 05:21:02;;;;;;;4.60;3.37;;;;;;;18.48;81.02;96134.27;1716362;83;21389;-84
2022/08/27 05:23:28;;;;;;;7.22;4.22;;;;;;;18.54;81.09;96145.15;1712301;82;21058;-84
2022/08/27 05:25:54;;;;;;;6.58;3.98;;;;;;;18.58;81.51;96154.70;1709085;82;21031;-84
2022/08/27 05:28:21;;;;;;;8.13;5.08;;;;;;;18.61;81.08;96167.38;1671649;84;21033;-85
2022/08/27 05:30:49;;;;;;;7.60;4.53;;;;;;;18.64;80.54;96170.08;1708120;82;20986;-85
2022/08/27 05:33:19;;;;;;;5.67;4.42;;;;;;;18.65;79.12;96169.05;1696110;82;21043;-86
2022/08/27 05:35:50;;;;;;;8.95;5.10;;;;;;;18.56;78.49;96165.47;1680218;83;21051;-86
2022/08/27 05:38:17;;;;;;;6.42;4.60;;;;;;;18.49;78.06;96160.86;1715130;83;20924;-86
2022/08/27 05:40:43;;;;;;;6.60;4.47;;;;;;;18.50;79.51;96157.70;1687286;83;21434;-85
2022/08/27 05:43:09;;;;;;;7.58;4.47;;;;;;;18.49;79.79;96160.06;1693758;83;21034;-86
2022/08/27 05:45:41;;;;;;;6.53;4.95;;;;;;;18.52;80.34;96159.58;1720442;82;21307;-84
2022/08/27 05:48:09;;;;;;;6.65;4.55;;;;;;;18.55;81.01;96159.13;1693751;83;20987;-85
2022/08/27 05:50:35;;;;;;;8.28;4.70;;;;;;;18.56;81.06;96164.16;1760136;80;21016;-85
2022/08/27 05:53:01;;;;;;;6.08;4.80;;;;;;;18.58;81.28;96168.66;1683816;83;21007;-86
2022/08/27 05:55:27;;;;;;;6.20;4.30;;;;;;;18.58;81.63;96166.03;1717305;83;21019;-86
2022/08/27 05:57:53;;;;;;;4.70;4.17;;;;;;;18.60;82.12;96166.59;1705069;83;21331;-86
2022/08/27 06:03:03;;;;;;;6.22;4.20;;;;;;;18.75;82.26;96171.86;1699365;83;20991;-86
2022/08/27 06:05:28;;;;;;;5.87;4.12;;;;;;;18.83;82.57;96163.55;1693379;83;21023;-85
2022/08/27 06:07:54;;;;;;;8.60;4.10;;;;;;;18.86;82.84;96153.86;1697670;84;20988;-86
2022/08/27 06:10:20;;;;;;;5.72;4.30;;;;;;;18.88;83.30;96149.19;1693218;83;21959;-85
2022/08/27 06:12:46;;;;;;;5.22;4.47;;;;;;;18.89;83.48;96149.45;1758971;80;20961;-86
2022/08/27 06:15:11;;;;;;;8.63;4.58;;;;;;;18.87;83.51;96147.56;1720451;82;20936;-85
2022/08/27 06:17:37;;;;;;;7.17;3.90;;;;;;;18.91;83.73;96142.64;1717801;82;21335;-86
2022/08/27 06:20:03;;;;;;;4.92;4.42;;;;;;;18.93;83.90;96145.82;1690985;83;21058;-86
2022/08/27 06:22:29;;;;;;;7.72;4.70;;;;;;;18.96;84.13;96138.75;1702933;83;21055;-86
2022/08/27 06:24:56;;;;;;;11.12;5.60;;;;;;;19.00;84.65;96141.18;1699897;83;21024;-86
2022/08/27 06:27:21;;;;;;;6.28;5.00;;;;;;;19.07;85.29;96141.31;1694454;84;20979;-85
2022/08/27 06:29:47;;;;;;;8.45;5.05;;;;;;;19.12;85.88;96141.38;1701410;83;21043;-85
2022/08/27 06:32:13;;;;;;;9.30;5.15;;;;;;;19.18;86.28;96141.72;1699975;83;21410;-85
2022/08/27 06:34:39;;;;;;;8.35;4.62;;;;;;;19.27;86.40;96146.07;1694986;82;21031;-85
2022/08/27 06:37:06;;;;;;;7.60;4.50;;;;;;;19.35;86.14;96157.50;1726400;82;21607;-86
2022/08/27 06:39:32;;;;;;;8.08;5.05;;;;;;;19.44;85.83;96165.80;1714925;82;21473;-85
2022/08/27 06:41:58;;;;;;;10.90;5.53;;;;;;;19.54;85.41;96165.98;1714216;82;21014;-87
2022/08/27 06:44:24;;;;;;;6.85;5.55;;;;;;;19.60;85.17;96166.31;1694313;83;21067;-88
2022/08/27 06:46:51;;;;;;;9.50;5.47;;;;;;;19.64;85.68;96159.51;1721679;82;20975;-87
2022/08/27 06:49:17;;;;;;;8.28;5.03;;;;;;;19.68;86.40;96157.17;1707600;84;20983;-88
2022/08/27 06:51:45;;;;;;;9.30;5.67;;;;;;;19.74;86.45;96160.97;1715341;82;20987;-88
2022/08/27 06:54:12;;;;;;;8.30;5.12;;;;;;;19.83;86.87;96165.80;1706268;83;21059;-87
2022/08/27 06:56:40;;;;;;;7.15;5.35;;;;;;;19.91;86.67;96170.66;1731404;81;20967;-87
2022/08/27 06:59:10;;;;;;;12.33;5.92;;;;;;;20.00;86.46;96171.80;1706844;82;21725;-87
2022/08/27 07:01:38;;;;;;;13.98;6.78;;;;;;;20.04;86.05;96163.17;1735892;82;21078;-87
2022/08/27 07:04:08;;;;;;;7.15;5.33;;;;;;;20.12;86.25;96163.77;1730105;82;20985;-87
2022/08/27 07:06:34;;;;;;;8.75;5.70;;;;;;;20.18;86.64;96165.44;1707673;82;21114;-88
2022/08/27 07:09:00;;;;;;;8.73;5.20;;;;;;;20.25;86.32;96169.47;1731937;81;20918;-88
2022/08/27 07:11:27;;;;;;;11.88;5.72;;;;;;;20.31;86.09;96181.66;1699957;81;20971;-87
2022/08/27 07:13:53;;;;;;;6.50;4.85;;;;;;;20.37;85.95;96182.00;1733235;81;21031;-87
2022/08/27 07:16:21;;;;;;;7.15;5.75;;;;;;;20.48;85.97;96186.88;1731441;82;21407;-87
2022/08/27 07:18:49;;;;;;;10.38;6.15;;;;;;;20.56;86.17;96190.41;1723481;81;20974;-87
2022/08/27 07:21:15;;;;;;;9.10;6.42;;;;;;;20.67;86.39;96189.99;1729233;82;21907;-87
2022/08/27 07:23:41;;;;;;;10.78;5.62;;;;;;;20.77;85.26;96195.88;1737142;81;21000;-88
2022/08/27 07:26:09;;;;;;;8.55;5.87;;;;;;;20.89;84.61;96199.16;1696708;81;21010;-88
2022/08/27 07:28:35;;;;;;;12.53;7.20;;;;;;;21.00;84.34;96207.45;1700161;82;20967;-87
2022/08/27 07:31:01;;;;;;;8.78;6.47;;;;;;;21.13;83.10;96208.33;1736101;82;21067;-88
2022/08/27 07:33:27;;;;;;;9.58;7.15;;;;;;;21.25;83.14;96217.44;1736902;82;21007;-88
2022/08/27 07:35:53;;;;;;;11.75;7.08;;;;;;;21.34;82.05;96218.58;1715383;82;21577;-87
2022/08/27 07:38:19;;;;;;;11.03;6.33;;;;;;;21.42;81.47;96219.41;1742586;81;20941;-88
2022/08/27 07:40:45;;;;;;;11.50;6.90;;;;;;;21.51;80.66;96220.55;1738755;81;21490;-87
2022/08/27 07:45:56;;;;;;;10.90;6.60;;;;;;;21.66;79.21;96225.13;1722004;81;20956;-88
2022/08/27 07:48:23;;;;;;;7.55;6.55;;;;;;;21.74;78.44;96221.20;1710130;82;21095;-88
2022/08/27 07:50:49;;;;;;;9.20;6.50;;;;;;;21.81;79.98;96226.55;1730919;81;21101;-88
2022/08/27 07:53:15;;;;;;;8.60;6.00;;;;;;;21.85;80.54;96225.50;1722142;81;21406;-87
2022/08/27 07:55:41;;;;;;;9.60;6.22;;;;;;;21.87;81.28;96230.80;1728769;81;21010;-88
2022/08/27 07:58:06;;;;;;;8.95;6.58;;;;;;;21.91;81.17;96229.75;1691348;83;20997;-87
2022/08/27 08:00:32;;;;;;;8.20;6.45;;;;;;;21.96;81.05;96234.27;1719270;81;21062;-87
2022/08/27 08:02:58;;;;;;;10.78;6.50;;;;;;;22.00;78.79;96229.55;1728492;82;20999;-87
2022/08/27 08:05:24;;;;;;;9.90;6.60;;;;;;;22.08;78.32;96232.24;1729669;81;20996;-88
2022/08/27 08:07:50;;;;;;;13.20;6.83;;;;;;;22.15;79.06;96234.14;1735090;81;21001;-88
2022/08/27 08:10:17;;;;;;;9.73;6.83;;;;;;;22.22;79.51;96233.37;1719109;81;20963;-88
2022/08/27 08:12:42;;;;;;;7.58;6.60;;;;;;;22.28;78.61;96236.82;1743496;81;21038;-88
2022/08/27 08:15:09;;;;;;;9.38;6.83;;;;;;;22.34;78.53;96245.06;1708112;81;21025;-88
2022/08/27 08:17:36;;;;;;;9.03;6.53;;;;;;;22.39;77.84;96241.90;1722770;83;21066;-88
2022/08/27 08:20:02;;;;;;;6.53;5.78;;;;;;;22.49;77.57;96250.95;1730474;81;21043;-88
2022/08/27 08:22:28;;;;;;;9.25;5.50;;;;;;;22.60;77.75;96249.90;1730222;81;21422;-88
2022/08/27 08:24:54;;;;;;;11.55;5.75;;;;;;;22.70;76.54;96249.94;1730341;81;21050;-87
2022/08/27 08:27:20;;;;;;;8.53;6.15;;;;;;;22.77;76.37;96253.91;1726970;82;21010;-86
2022/08/27 08:29:47;;;;;;;9.95;6.72;;;;;;;22.86;76.02;96251.59;1730710;81;22029;-85
2022/08/27 08:32:13;;;;;;;8.98;5.85;;;;;;;22.92;76.01;96253.70;1720960;82;21007;-85
2022/08/27 08:34:40;;;;;;;9.30;5.78;;;;;;;23.00;76.21;96263.27;1695067;80;20999;-86
2022/08/27 08:37:06;;;;;;;7.30;5.80;;;;;;;23.10;75.44;96259.02;1764426;80;21401;-85
2022/08/27 08:39:32;;;;;;;15.78;7.25;;;;;;;23.18;75.12;96254.55;1752166;80;21054;-86
2022/08/27 08:42:00;;;;;;;8.40;5.47;;;;;;;23.26;74.56;96260.63;1766258;80;21099;-85
2022/08/27 08:44:43;;;;;;;12.63;6.37;;;;;;;23.32;74.80;96260.91;1754072;80;21019;-84
2022/08/27 08:47:21;;;;;;;8.38;6.30;;;;;;;23.38;74.74;96265.14;1730616;81;20950;-86
2022/08/27 08:50:03;;;;;;;8.50;6.58;;;;;;;23.47;73.56;96277.35;1737883;80;21003;-84
2022/08/27 08:52:59;;;;;;;7.92;6.50;;;;;;;23.53;73.90;96285.03;1752780;80;21357;-85
2022/08/27 08:55:46;;;;;;;8.75;6.35;;;;;;;23.56;73.15;96291.66;1724651;81;21021;-85
2022/08/27 08:58:38;;;;;;;10.00;6.80;;;;;;;23.58;73.26;96287.70;1745034;80;21369;-84
2022/08/27 09:01:07;;;;;;;10.23;7.28;;;;;;;23.65;72.58;96291.42;1739703;80;21023;-84
2022/08/27 09:03:36;;;;;;;10.72;7.12;;;;;;;23.74;73.85;96295.64;1741367;82;20998;-84
2022/08/27 09:06:05;;;;;;;13.45;6.97;;;;;;;23.79;72.86;96299.64;1732115;80;21122;-84
2022/08/27 09:08:40;;;;;;;8.50;7.60;;;;;;;23.84;73.37;96296.97;1729506;81;21018;-84
2022/08/27 09:11:23;;;;;;;9.40;7.25;;;;;;;23.91;73.33;96294.83;1716008;81;21435;-83
2022/08/27 09:13:54;;;;;;;10.38;7.65;;;;;;;23.98;72.34;96303.32;1719486;81;21028;-83
2022/08/27 09:16:20;;;;;;;9.85;7.40;;;;;;;23.97;72.15;96300.41;1731471;81;21367;-84
2022/08/27 09:18:46;;;;;;;9.68;7.87;;;;;;;23.97;70.42;96300.94;1707032;81;21064;-83
2022/08/27 09:21:30;;;;;;;9.93;8.70;;;;;;;23.95;71.19;96302.00;1736090;81;21386;-83
2022/08/27 09:24:19;;;;;;;12.55;7.30;;;;;;;23.97;71.82;96300.94;1737803;81;20992;-84
2022/08/27 09:26:45;;;;;;;9.05;6.65;;;;;;;24.00;71.87;96301.72;1731480;81;21051;-87
2022/08/27 09:29:20;;;;;;;11.73;7.83;;;;;;;24.03;70.94;96295.88;1705404;82;21379;-87
2022/08/27 09:32:07;;;;;;;10.45;6.97;;;;;;;24.07;71.70;96299.04;1710816;82;21034;-87
2022/08/27 09:34:39;;;;;;;11.35;7.33;;;;;;;24.13;70.78;96295.86;1729563;81;21033;-87
2022/08/27 09:37:14;;;;;;;14.80;8.10;;;;;;;24.21;70.82;96290.77;1706971;82;21108;-87
2022/08/27 09:39:49;;;;;;;10.58;7.78;;;;;;;24.31;70.95;96291.32;1721831;81;21003;-87
2022/08/27 09:42:39;;;;;;;8.13;6.92;;;;;;;24.42;70.77;96296.86;1707587;83;20990;-87
2022/08/27 09:45:10;;;;;;;11.15;7.72;;;;;;;24.51;71.69;96295.22;1706315;81;21001;-86
2022/08/27 09:47:51;;;;;;;;;;;;;;;24.60;71.06;96305.30;1720243;82;21083;-86
2022/08/27 09:50:22;;;;;;;10.50;7.37;;;;;;;24.64;70.53;96305.80;1706551;81;20104;-86
2022/08/27 09:52:54;;;;;;;8.78;7.12;;;;;;;24.65;69.03;96305.27;1722199;81;20975;-86
2022/08/27 09:55:46;;;;;;;9.75;7.28;;;;;;;24.59;69.58;96303.70;1721559;81;20996;-86
2022/08/27 09:58:20;;;;;;;10.18;6.35;;;;;;;24.64;69.82;96301.02;1717358;81;21320;-86
2022/08/27 10:00:47;;;;;;;8.90;6.40;;;;;;;24.77;69.81;96296.44;1732278;81;21003;-85
2022/08/27 10:03:13;;;;;;;10.60;6.53;;;;;;;24.75;69.87;96302.03;1727200;82;20951;-85
2022/08/27 10:05:52;;;;;;;9.33;6.53;;;;;;;24.62;69.31;96282.70;1727101;81;20987;-86
2022/08/27 10:08:30;;;;;;;9.63;7.15;;;;;;;24.68;69.26;96285.58;1720776;81;22041;-86
2022/08/27 10:11:18;;;;;;;10.68;6.92;;;;;;;24.68;69.26;96285.58;1723884;81;20959;-86
2022/08/27 10:14:04;;;;;;;10.18;6.20;;;;;;;24.72;70.66;96297.77;1728759;83;20983;-86
2022/08/27 10:16:56;;;;;;;6.70;5.72;;;;;;;24.74;70.68;96297.00;1700568;81;21065;-86
2022/08/27 10:19:46;;;;;;;10.78;6.12;;;;;;;24.74;70.77;96297.79;1724640;81;20992;-86
2022/08/27 10:22:26;;;;;;;9.28;6.35;;;;;;;24.67;69.75;96301.80;1730402;83;21039;-85
2022/08/27 10:25:14;;;;;;;6.92;6.10;;;;;;;24.68;68.56;96300.73;1732773;81;20991;-86
2022/08/27 10:28:03;;;;;;;8.88;5.97;;;;;;;24.83;69.57;96287.36;1720056;83;20963;-85
2022/08/27 10:31:08;;;;;;;11.08;6.50;;;;;;;24.83;69.20;96280.72;1726795;81;20960;-86
2022/08/27 10:33:46;;;;;;;7.97;6.30;;;;;;;24.83;69.20;96280.72;1723985;81;21382;-86
2022/08/27 10:37:00;;;;;;;8.30;6.05;;;;;;;24.80;67.80;96285.26;1727254;81;21398;-85
2022/08/27 10:40:13;;;;;;;8.55;5.42;;;;;;;24.79;69.03;96275.70;1707160;83;21035;-86
2022/08/27 10:42:50;;;;;;;8.88;5.12;;;;;;;24.75;67.65;96279.45;1713720;83;21003;-85
2022/08/27 10:45:42;;;;;;;7.08;5.42;;;;;;;24.74;65.23;96282.37;1724393;83;20951;-85
2022/08/27 10:48:31;;;;;;;7.20;5.00;;;;;;;24.69;66.60;96274.41;1700882;83;20985;-85
2022/08/27 10:51:18;;;;;;;11.00;8.40;;;;;;;24.69;66.11;96275.75;1724985;82;20955;-85
2022/08/27 10:53:52;;;;;;;8.13;4.90;;;;;;;24.69;66.37;96269.89;1711292;82;21342;-86
2022/08/27 10:56:44;;;;;;;8.55;4.78;;;;;;;24.69;66.62;96267.23;1709635;84;20971;-85
2022/08/27 10:59:34;;;;;;;9.13;5.55;;;;;;;24.60;65.98;96254.82;1712694;82;20994;-85
2022/08/27 11:02:32;;;;;;;5.90;5.40;;;;;;;24.63;68.70;96258.25;1725384;83;21050;-86
2022/08/27 11:05:06;;;;;;;6.55;5.28;;;;;;;24.55;71.41;96259.07;1695308;83;20941;-86
2022/08/27 11:07:38;;;;;;;7.25;4.90;;;;;;;24.55;71.41;96259.07;1717328;81;20954;-85
2022/08/27 11:10:08;;;;;;;8.08;5.65;;;;;;;24.60;71.96;96258.27;1694472;83;20936;-86
2022/08/27 11:12:37;;;;;;;8.58;4.80;;;;;;;24.66;71.40;96259.03;1692327;82;21047;-86
2022/08/27 11:15:30;;;;;;;7.80;5.67;;;;;;;24.57;72.24;96261.48;1711298;82;20986;-86
2022/08/27 11:18:02;;;;;;;8.23;6.00;;;;;;;24.57;72.24;96261.48;1710059;84;21023;-86
2022/08/27 11:20:46;;;;;;;;;;;;;;;24.53;73.00;96256.43;1715247;84;20998;-86
2022/08/27 11:23:16;;;;;;;8.48;5.00;;;;;;;24.53;74.09;96253.77;1694488;83;20158;-86
2022/08/27 11:26:03;;;;;;;6.33;4.55;;;;;;;24.57;74.04;96254.84;1709630;82;21022;-86
2022/08/27 11:28:49;;;;;;;6.33;5.10;;;;;;;24.61;73.89;96251.09;1695411;83;20956;-85
2022/08/27 11:31:32;;;;;;;6.75;5.15;;;;;;;24.63;73.92;96248.95;1726147;83;20972;-86
2022/08/27 11:34:14;;;;;;;7.25;5.22;;;;;;;24.62;74.04;96248.70;1716285;82;20970;-86
2022/08/27 11:37:08;;;;;;;7.55;6.28;;;;;;;24.61;74.28;96244.45;1716146;81;21423;-86
2022/08/27 11:40:06;;;;;;;6.97;5.40;;;;;;;24.64;74.23;96253.20;1725544;81;21043;-85
2022/08/27 11:42:45;;;;;;;8.20;6.17;;;;;;;24.66;75.04;96251.06;1667229;85;21395;-86
2022/08/27 11:45:27;;;;;;;6.37;5.03;;;;;;;24.65;72.33;96252.13;1633544;85;21011;-86
2022/08/27 11:47:57;;;;;;;8.38;4.83;;;;;;;24.69;74.26;96247.84;1701294;82;21041;-86
2022/08/27 11:50:23;;;;;;;6.12;5.17;;;;;;;24.73;74.99;96250.20;1731248;81;20967;-86
2022/08/27 11:53:06;;;;;;;7.87;5.45;;;;;;;24.79;75.97;96247.27;1722972;81;21012;-85